Time;durP1;ratioP1;P1;durP2;ratioP2;P2;SDS_P1;SDS_P2;PMS_P1;PMS_P2;Temp;Humidity;BMP_temperature;BMP_pressure;BME280_temperature;BME280_humidity;BME280_pressure;Samples;Min_cycle;Max_cycle;Signal;HPM_P1;HPM_P2
2022/01/07 00:01:25;;;;;;;10.10;7.90;;;;;;;-0.62;100.00;151213.19;5008680;28;20451;-75
2022/01/07 00:04:01;;;;;;;12.80;7.43;;;;;;;-0.62;100.00;151213.19;4992610;28;20460;-75
2022/01/07 00:06:37;;;;;;;10.40;8.10;;;;;;;-0.62;100.00;151213.19;5008761;28;20904;-75
2022/01/07 00:09:13;;;;;;;10.80;7.97;;;;;;;-0.70;100.00;151193.94;4977560;28;20456;-75
2022/01/07 00:11:48;;;;;;;11.13;8.00;;;;;;;-0.73;100.00;151186.25;5008822;28;20454;-75
2022/01/07 00:14:24;;;;;;;12.07;8.23;;;;;;;-0.75;100.00;151179.84;4977397;28;20808;-75
2022/01/07 00:16:59;;;;;;;9.33;7.50;;;;;;;-0.79;100.00;151169.56;4992326;28;20933;-75
2022/01/07 00:19:36;;;;;;;9.50;7.83;;;;;;;-0.76;100.00;151177.25;5008695;28;20933;-75
2022/01/07 00:22:12;;;;;;;11.13;7.40;;;;;;;-0.75;100.00;151181.13;5008716;28;20848;-75
2022/01/07 00:24:48;;;;;;;9.93;7.43;;;;;;;-0.74;100.00;151182.38;4992380;28;20564;-75
2022/01/07 00:27:23;;;;;;;8.03;6.77;;;;;;;-0.78;100.00;151172.13;5007396;28;20433;-75
2022/01/07 00:29:59;;;;;;;8.97;6.77;;;;;;;-0.75;100.00;151181.13;4992380;28;20805;-75
2022/01/07 00:32:35;;;;;;;7.03;6.30;;;;;;;-0.76;100.00;151177.25;5008130;28;20452;-75
2022/01/07 00:35:13;;;;;;;10.20;8.13;;;;;;;-0.78;100.00;151173.44;5008693;28;20488;-75
2022/01/07 00:37:50;;;;;;;7.90;6.73;;;;;;;-0.73;100.00;151184.94;4991900;28;20790;-75
2022/01/07 00:40:26;;;;;;;10.30;8.00;;;;;;;-0.79;100.00;151169.56;5008531;28;20844;-75
2022/01/07 00:43:02;;;;;;;10.17;7.70;;;;;;;-0.84;100.00;151156.72;4976879;28;20550;-75
2022/01/07 00:45:37;;;;;;;11.57;8.13;;;;;;;-0.84;100.00;151158.03;5025023;28;20477;-75
2022/01/07 00:48:13;;;;;;;10.63;7.90;;;;;;;-0.90;100.00;151141.38;4976488;28;20466;-75
2022/01/07 00:50:50;;;;;;;12.10;8.50;;;;;;;-0.89;100.00;151145.22;5008487;28;20552;-75
2022/01/07 00:53:26;;;;;;;12.80;9.10;;;;;;;-0.90;100.00;151141.38;4991804;28;20847;-75
2022/01/07 00:56:01;;;;;;;10.57;8.27;;;;;;;-0.92;100.00;151136.22;5008461;28;20442;-75
2022/01/07 00:58:37;;;;;;;9.33;7.33;;;;;;;-0.93;100.00;151133.69;5008059;28;20446;-75
2022/01/07 01:01:12;;;;;;;10.10;7.90;;;;;;;-0.98;100.00;151122.09;5006400;28;20927;-75
2022/01/07 01:03:48;;;;;;;9.73;7.90;;;;;;;-0.96;100.00;151125.97;4972340;28;20504;-75
2022/01/07 01:06:25;;;;;;;11.40;7.57;;;;;;;-1.00;100.00;151115.69;4987940;28;20472;-75
2022/01/07 01:09:01;;;;;;;14.00;7.80;;;;;;;-1.06;100.00;151101.59;4991560;28;20437;-75
2022/01/07 01:11:37;;;;;;;9.20;8.20;;;;;;;-1.07;100.00;151097.78;5024651;28;20433;-75
2022/01/07 01:14:12;;;;;;;11.40;8.00;;;;;;;-1.05;100.00;151102.88;5009153;28;20495;-75
2022/01/07 01:16:47;;;;;;;8.50;7.17;;;;;;;-1.04;100.00;151106.75;5024282;28;20479;-75
2022/01/07 01:19:23;;;;;;;10.00;7.57;;;;;;;-1.05;100.00;151102.88;5007939;28;20501;-75
2022/01/07 01:22:00;;;;;;;12.53;7.73;;;;;;;-1.05;100.00;151104.19;4991331;28;20472;-75
2022/01/07 01:24:36;;;;;;;11.87;7.43;;;;;;;-1.10;100.00;151090.06;5007741;28;20535;-75
2022/01/07 01:27:12;;;;;;;9.23;6.97;;;;;;;-1.10;100.00;151091.38;5024362;28;20422;-75
2022/01/07 01:29:47;;;;;;;7.93;6.37;;;;;;;-1.08;100.00;151096.47;4991204;28;20444;-75
2022/01/07 01:32:23;;;;;;;9.27;7.10;;;;;;;-1.03;100.00;151108.06;4991492;28;20484;-75
2022/01/07 01:34:58;;;;;;;15.63;7.37;;;;;;;-1.07;100.00;151097.78;5023467;28;20444;-75
2022/01/07 01:37:35;;;;;;;14.67;6.63;;;;;;;-1.06;100.00;151101.59;5027430;28;20449;-75
2022/01/07 01:40:11;;;;;;;9.00;6.53;;;;;;;-1.00;100.00;151115.69;4999369;28;20478;-75
2022/01/07 01:42:48;;;;;;;10.00;5.80;;;;;;;-0.98;100.00;151122.09;5007500;28;20452;-75
2022/01/07 01:45:24;;;;;;;8.43;5.83;;;;;;;-0.97;100.00;151123.41;4976543;28;20478;-75
2022/01/07 01:47:59;;;;;;;10.00;6.53;;;;;;;-0.99;100.00;151118.28;4991035;28;20473;-75
2022/01/07 01:50:35;;;;;;;7.87;5.83;;;;;;;-1.00;100.00;151115.69;4991396;28;20455;-75
2022/01/07 01:53:12;;;;;;;10.33;7.33;;;;;;;-1.00;100.00;151115.69;4976278;28;20433;-75
2022/01/07 01:55:48;;;;;;;9.27;6.60;;;;;;;-0.99;100.00;151118.28;5007398;28;20795;-75
2022/01/07 01:58:23;;;;;;;10.70;7.17;;;;;;;-1.01;100.00;151113.16;5006427;28;20433;-75
2022/01/07 02:00:59;;;;;;;8.93;6.97;;;;;;;-1.05;100.00;151102.88;4979639;28;20453;-75
2022/01/07 02:03:34;;;;;;;9.23;7.13;;;;;;;-1.03;100.00;151108.06;4976363;28;20968;-75
2022/01/07 02:06:10;;;;;;;11.30;7.43;;;;;;;-1.04;100.00;151105.47;4976696;28;20411;-75
2022/01/07 02:08:48;;;;;;;13.30;6.93;;;;;;;-1.09;100.00;151093.94;4991508;28;20501;-75
2022/01/07 02:11:24;;;;;;;9.33;6.87;;;;;;;-1.07;100.00;151097.78;4975442;28;20439;-75
2022/01/07 02:13:59;;;;;;;8.33;6.70;;;;;;;-1.05;100.00;151104.19;4986288;28;20655;-75
2022/01/07 02:16:35;;;;;;;8.50;6.60;;;;;;;-1.08;100.00;151096.47;5011083;28;20805;-75
2022/01/07 02:19:10;;;;;;;9.57;6.90;;;;;;;-1.06;100.00;151100.34;5010962;28;20788;-75
2022/01/07 02:21:47;;;;;;;8.67;6.47;;;;;;;-1.11;100.00;151087.53;4994586;28;20442;-75
2022/01/07 02:24:23;;;;;;;10.30;7.07;;;;;;;-1.15;100.00;151078.56;4994599;28;20967;-75
2022/01/07 02:27:00;;;;;;;10.73;7.70;;;;;;;-1.18;100.00;151069.56;4994476;28;20916;-75
2022/01/07 02:29:36;;;;;;;10.80;8.33;;;;;;;-1.13;100.00;151082.38;4994287;28;20450;-75
2022/01/07 02:32:12;;;;;;;12.90;7.43;;;;;;;-1.10;100.00;151090.06;4991205;28;20425;-75
2022/01/07 02:34:48;;;;;;;11.57;7.60;;;;;;;-1.05;100.00;151104.19;5035845;28;20447;-75
2022/01/07 02:37:25;;;;;;;10.87;7.93;;;;;;;-1.06;100.00;151100.34;4998793;28;20945;-75
2022/01/07 02:40:02;;;;;;;9.97;7.10;;;;;;;-1.07;100.00;151097.78;5014936;28;20993;-75
2022/01/07 02:42:38;;;;;;;12.60;8.50;;;;;;;-1.10;100.00;151090.06;5014539;28;20936;-75
2022/01/07 02:45:14;;;;;;;14.07;9.33;;;;;;;-1.09;100.00;151092.66;5009441;28;20469;-75
2022/01/07 02:47:53;;;;;;;11.20;8.43;;;;;;;-1.12;100.00;151084.97;5010165;28;20483;-75
2022/01/07 02:50:30;;;;;;;9.80;7.60;;;;;;;-1.10;100.00;151090.06;5010352;28;20451;-75
2022/01/07 02:53:10;;;;;;;11.13;8.33;;;;;;;-1.19;100.00;151068.28;5010431;28;20440;-75
2022/01/07 02:55:45;;;;;;;12.43;8.77;;;;;;;-1.24;100.00;151056.75;5010418;28;20466;-75
2022/01/07 02:58:21;;;;;;;10.80;8.20;;;;;;;-1.24;100.00;151056.75;4993945;28;20410;-75
2022/01/07 03:00:57;;;;;;;11.30;9.47;;;;;;;-1.18;100.00;151070.84;4994194;28;20429;-75
2022/01/07 03:03:32;;;;;;;12.13;7.83;;;;;;;-1.18;100.00;151069.56;5009883;28;20793;-75
2022/01/07 03:06:08;;;;;;;11.10;7.37;;;;;;;-1.15;100.00;151078.56;4993562;28;20436;-75
2022/01/07 03:08:47;;;;;;;10.47;7.90;;;;;;;-1.13;100.00;151083.66;5009978;28;20793;-75
2022/01/07 03:11:23;;;;;;;9.80;7.47;;;;;;;-1.16;100.00;151074.66;5008944;28;20445;-75
2022/01/07 03:13:59;;;;;;;9.30;7.23;;;;;;;-1.17;100.00;151072.13;5009849;28;20433;-75
2022/01/07 03:16:35;;;;;;;10.60;7.37;;;;;;;-1.24;100.00;151055.44;5009841;28;20429;-75
2022/01/07 03:19:10;;;;;;;11.63;7.03;;;;;;;-1.18;100.00;151069.56;4993423;28;20445;-75
2022/01/07 03:21:46;;;;;;;8.90;7.00;;;;;;;-1.23;100.00;151058.03;5009729;28;20806;-75
2022/01/07 03:24:22;;;;;;;11.37;7.40;;;;;;;-1.27;100.00;151049.06;5009678;28;20475;-75
2022/01/07 03:26:58;;;;;;;10.60;6.40;;;;;;;-1.30;100.00;151040.13;4994979;28;20752;-75
2022/01/07 03:29:34;;;;;;;15.87;7.17;;;;;;;-1.28;100.00;151046.50;5009365;28;20531;-75
2022/01/07 03:32:10;;;;;;;8.90;7.07;;;;;;;-1.28;100.00;151046.50;5026188;28;20433;-75
2022/01/07 03:34:45;;;;;;;11.00;7.37;;;;;;;-1.30;100.00;151041.34;5040088;28;20438;-75
2022/01/07 03:37:21;;;;;;;12.17;7.13;;;;;;;-1.31;100.00;151038.81;5029438;28;20440;-75
2022/01/07 03:39:58;;;;;;;13.37;7.17;;;;;;;-1.28;100.00;151045.22;5009957;28;20453;-75
2022/01/07 03:42:33;;;;;;;8.40;7.07;;;;;;;-1.29;100.00;151043.94;5009443;28;20488;-75
2022/01/07 03:45:10;;;;;;;13.27;7.30;;;;;;;-1.29;100.00;151043.94;4978000;28;20967;-75
2022/01/07 03:47:46;;;;;;;7.07;6.17;;;;;;;-1.25;100.00;151054.22;5009144;28;20840;-75
2022/01/07 03:50:23;;;;;;;9.50;7.43;;;;;;;-1.26;100.00;151051.63;5025979;28;20441;-75
2022/01/07 03:52:59;;;;;;;12.27;6.80;;;;;;;-1.29;100.00;151042.66;4993031;28;20442;-75
2022/01/07 03:55:36;;;;;;;9.23;6.90;;;;;;;-1.28;100.00;151046.50;5009139;28;20453;-75
2022/01/07 03:58:11;;;;;;;9.10;7.03;;;;;;;-1.31;100.00;151037.53;5008022;28;20441;-75
2022/01/07 04:00:47;;;;;;;10.83;7.33;;;;;;;-1.28;100.00;151046.50;4993856;28;20636;-75
2022/01/07 04:03:22;;;;;;;7.70;6.30;;;;;;;-1.24;100.00;151055.44;5008011;28;20441;-75
2022/01/07 04:05:58;;;;;;;11.60;6.63;;;;;;;-1.23;100.00;151059.34;4994163;28;20802;-75
2022/01/07 04:08:34;;;;;;;9.83;7.07;;;;;;;-1.30;100.00;151041.34;5009092;28;20441;-75
2022/01/07 04:11:10;;;;;;;9.57;6.70;;;;;;;-1.31;100.00;151038.81;5008912;28;20502;-75
2022/01/07 04:13:46;;;;;;;9.50;6.40;;;;;;;-1.23;100.00;151059.34;4977394;28;20441;-75
2022/01/07 04:16:21;;;;;;;9.70;6.30;;;;;;;-1.28;100.00;151046.50;4992458;28;20443;-75
2022/01/07 04:18:57;;;;;;;11.33;7.30;;;;;;;-1.25;100.00;151054.22;5008927;28;20539;-75
2022/01/07 04:21:33;;;;;;;11.60;6.60;;;;;;;-1.28;100.00;151046.50;5008580;28;20441;-75
2022/01/07 04:24:08;;;;;;;10.50;6.47;;;;;;;-1.24;100.00;151055.44;5008682;28;20457;-75
2022/01/07 04:26:45;;;;;;;9.13;6.17;;;;;;;-1.34;100.00;151029.84;5008473;28;20531;-75
2022/01/07 04:29:21;;;;;;;6.40;5.77;;;;;;;-1.30;100.00;151041.34;5008873;28;20452;-75
2022/01/07 04:31:57;;;;;;;10.40;7.50;;;;;;;-1.36;100.00;151026.00;4992159;28;20448;-75
2022/01/07 04:34:32;;;;;;;10.00;8.07;;;;;;;-1.38;100.00;151020.84;5020606;28;20451;-75
2022/01/07 04:37:08;;;;;;;10.57;6.83;;;;;;;-1.47;100.00;150997.81;4996594;28;20970;-75
2022/01/07 04:39:44;;;;;;;9.70;6.33;;;;;;;-1.40;100.00;151015.72;5028309;28;20554;-75
2022/01/07 04:42:20;;;;;;;8.57;6.30;;;;;;;-1.42;100.00;151010.63;4998640;28;20916;-75
2022/01/07 04:44:56;;;;;;;10.57;7.43;;;;;;;-1.37;100.00;151023.44;5008427;28;20473;-75
2022/01/07 04:47:35;;;;;;;11.83;7.17;;;;;;;-1.36;100.00;151026.00;4991675;28;20472;-75
2022/01/07 04:50:13;;;;;;;10.90;7.00;;;;;;;-1.43;100.00;151008.03;4993556;28;20437;-75
2022/01/07 04:52:49;;;;;;;12.23;7.30;;;;;;;-1.40;100.00;151014.44;5024574;28;20451;-75
2022/01/07 04:55:26;;;;;;;11.47;6.37;;;;;;;-1.39;100.00;151017.03;5008466;28;20441;-75
2022/01/07 04:58:03;;;;;;;10.30;6.90;;;;;;;-1.43;100.00;151008.03;5008030;28;20526;-75
2022/01/07 05:00:39;;;;;;;11.03;8.30;;;;;;;-1.46;100.00;151000.38;5007191;28;20848;-75
2022/01/07 05:03:15;;;;;;;9.10;6.93;;;;;;;-1.40;100.00;151014.44;5008126;28;20778;-75
2022/01/07 05:06:02;;;;;;;11.43;8.00;;;;;;;-1.40;100.00;151014.44;4981566;28;20575;-75
2022/01/07 05:08:38;;;;;;;10.70;7.40;;;;;;;-1.45;100.00;151001.63;4988569;28;20536;-75
2022/01/07 05:11:13;;;;;;;10.70;6.93;;;;;;;-1.44;100.00;151005.50;4957333;28;20428;-75
2022/01/07 05:13:50;;;;;;;12.23;7.57;;;;;;;-1.37;100.00;151022.13;4972147;28;20458;-75
2022/01/07 05:16:28;;;;;;;9.47;6.77;;;;;;;-1.42;100.00;151010.63;4988367;28;20782;-75
2022/01/07 05:19:04;;;;;;;11.63;7.10;;;;;;;-1.38;100.00;151020.84;4973644;28;20487;-75
2022/01/07 05:21:40;;;;;;;10.63;7.10;;;;;;;-1.39;100.00;151018.31;5004974;28;20461;-75
2022/01/07 05:24:15;;;;;;;10.27;6.57;;;;;;;-1.39;100.00;151017.03;5007969;28;20480;-75
2022/01/07 05:26:51;;;;;;;14.20;7.30;;;;;;;-1.41;100.00;151011.91;4991281;28;20464;-75
2022/01/07 05:29:28;;;;;;;10.80;6.77;;;;;;;-1.42;100.00;151009.31;5007861;28;20448;-75
2022/01/07 05:32:05;;;;;;;8.37;7.17;;;;;;;-1.41;100.00;151011.91;5007878;28;20445;-75
2022/01/07 05:34:40;;;;;;;10.70;7.00;;;;;;;-1.47;100.00;150997.81;4993127;28;20770;-75
2022/01/07 05:37:16;;;;;;;12.73;6.87;;;;;;;-1.48;100.00;150993.94;5004169;28;20546;-75
2022/01/07 05:39:52;;;;;;;14.10;8.17;;;;;;;-1.44;100.00;151005.50;5011611;28;20452;-75
2022/01/07 05:42:27;;;;;;;9.03;6.60;;;;;;;-1.42;100.00;151009.31;5011579;28;20456;-75
2022/01/07 05:45:05;;;;;;;8.33;6.20;;;;;;;-1.43;100.00;151008.03;5011710;28;20480;-75
2022/01/07 05:47:41;;;;;;;9.17;7.17;;;;;;;-1.42;100.00;151010.63;5011320;28;20516;-75
2022/01/07 05:50:16;;;;;;;10.30;6.23;;;;;;;-1.37;100.00;151023.44;4995444;28;20476;-75
2022/01/07 05:52:52;;;;;;;9.23;7.10;;;;;;;-1.34;100.00;151029.84;4980033;28;20441;-75
2022/01/07 05:55:27;;;;;;;12.70;6.77;;;;;;;-1.38;100.00;151019.59;4996436;28;21153;-75
2022/01/07 05:58:03;;;;;;;12.37;7.63;;;;;;;-1.39;100.00;151017.03;5011457;28;20432;-75
2022/01/07 06:00:40;;;;;;;8.90;6.27;;;;;;;-1.36;100.00;151026.00;5011537;28;20450;-75
2022/01/07 06:03:15;;;;;;;12.17;7.33;;;;;;;-1.36;100.00;151026.00;5011285;28;20746;-75
2022/01/07 06:05:51;;;;;;;10.47;7.43;;;;;;;-1.28;100.00;151046.50;4998443;28;20470;-75
2022/01/07 06:08:27;;;;;;;11.57;7.27;;;;;;;-1.30;100.00;151040.13;4991679;28;20472;-75
2022/01/07 06:11:03;;;;;;;9.80;7.10;;;;;;;-1.29;100.00;151043.94;4995466;28;20546;-75
2022/01/07 06:13:38;;;;;;;12.10;7.00;;;;;;;-1.35;100.00;151028.53;5027671;28;21054;-75
2022/01/07 06:16:15;;;;;;;10.43;7.70;;;;;;;-1.35;100.00;151028.53;5009813;28;20440;-75
2022/01/07 06:18:53;;;;;;;10.77;7.27;;;;;;;-1.26;100.00;151051.63;4994889;28;20433;-75
2022/01/07 06:21:30;;;;;;;9.00;6.40;;;;;;;-1.25;100.00;151052.91;5027464;28;20441;-75
2022/01/07 06:24:06;;;;;;;10.20;6.30;;;;;;;-1.26;100.00;151051.63;5027524;28;20473;-75
2022/01/07 06:26:42;;;;;;;12.03;7.93;;;;;;;-1.26;100.00;151051.63;5010429;28;20470;-75
2022/01/07 06:29:17;;;;;;;10.53;6.77;;;;;;;-1.24;100.00;151056.75;5009598;28;20450;-75
2022/01/07 06:31:54;;;;;;;11.10;6.70;;;;;;;-1.22;100.00;151060.63;4994415;28;20429;-75
2022/01/07 06:34:30;;;;;;;8.27;6.20;;;;;;;-1.20;100.00;151065.72;4994546;28;20476;-75
2022/01/07 06:37:05;;;;;;;12.13;6.73;;;;;;;-1.15;100.00;151077.25;5022187;28;20444;-75
2022/01/07 06:39:41;;;;;;;11.57;7.00;;;;;;;-1.15;100.00;151077.25;4998975;28;20484;-75
2022/01/07 06:42:17;;;;;;;11.67;7.53;;;;;;;-1.15;100.00;151077.25;5002231;28;20816;-75
2022/01/07 06:44:52;;;;;;;9.00;6.57;;;;;;;-1.14;100.00;151079.84;5010220;28;20463;-76
2022/01/07 06:47:29;;;;;;;11.07;7.20;;;;;;;-1.14;100.00;151081.13;5010403;28;21039;-75
2022/01/07 06:50:06;;;;;;;9.67;6.77;;;;;;;-1.14;100.00;151081.13;5010448;28;20448;-75
2022/01/07 06:52:42;;;;;;;8.23;6.80;;;;;;;-1.15;100.00;151077.25;5009056;28;20442;-75
2022/01/07 06:55:18;;;;;;;10.50;7.17;;;;;;;-1.09;100.00;151092.66;5011570;28;20449;-75
2022/01/07 06:57:53;;;;;;;10.37;7.20;;;;;;;-1.22;100.00;151061.88;4978979;28;20429;-75
2022/01/07 07:00:30;;;;;;;9.50;7.30;;;;;;;-1.23;100.00;151059.34;5010441;28;20802;-75
2022/01/07 07:03:07;;;;;;;13.53;8.37;;;;;;;-1.22;100.00;151061.88;5008778;28;21013;-75
2022/01/07 07:05:42;;;;;;;10.27;7.20;;;;;;;-1.19;100.00;151067.03;5010396;28;20481;-75
2022/01/07 07:08:18;;;;;;;9.60;7.57;;;;;;;-1.19;100.00;151067.03;5008811;28;20926;-76
2022/01/07 07:10:53;;;;;;;9.67;6.93;;;;;;;-1.23;100.00;151059.34;4995085;28;20808;-76
2022/01/07 07:13:29;;;;;;;11.10;7.53;;;;;;;-1.20;100.00;151065.72;4993662;28;20532;-76
2022/01/07 07:16:05;;;;;;;9.17;6.70;;;;;;;-1.18;100.00;151069.56;5009956;28;20777;-75
2022/01/07 07:18:42;;;;;;;11.03;8.03;;;;;;;-1.14;100.00;151079.84;5009921;28;20916;-75
2022/01/07 07:21:17;;;;;;;10.80;7.00;;;;;;;-1.13;100.00;151082.38;5006667;28;20483;-75
2022/01/07 07:23:53;;;;;;;11.07;7.33;;;;;;;-1.16;100.00;151075.97;4973790;28;20825;-75
2022/01/07 07:26:28;;;;;;;7.70;5.80;;;;;;;-1.23;100.00;151059.34;4973847;28;20992;-76
2022/01/07 07:29:04;;;;;;;10.80;6.90;;;;;;;-1.23;100.00;151059.34;4959018;28;20926;-75
2022/01/07 07:31:44;;;;;;;12.87;7.67;;;;;;;-1.14;100.00;151081.13;4975082;28;20461;-75
2022/01/07 07:34:43;;;;;;;9.10;7.20;;;;;;;-1.15;100.00;151077.25;4990060;28;20445;-75
2022/01/07 07:37:17;;;;;;;9.87;7.23;;;;;;;-1.10;100.00;151090.06;4987109;28;20453;-75
2022/01/07 07:39:53;;;;;;;10.17;6.73;;;;;;;-1.07;100.00;151097.78;4993172;28;20845;-75
2022/01/07 07:42:28;;;;;;;9.57;6.93;;;;;;;-1.09;100.00;151092.66;4993259;28;20790;-76
2022/01/07 07:45:08;;;;;;;10.50;6.57;;;;;;;-1.04;100.00;151105.47;4977963;28;20936;-75
2022/01/07 07:47:44;;;;;;;8.90;6.10;;;;;;;-1.02;100.00;151111.88;4992681;28;20482;-75
2022/01/07 07:50:21;;;;;;;12.17;7.73;;;;;;;-1.00;100.00;151115.69;4994506;28;20409;-76
2022/01/07 07:52:56;;;;;;;9.03;6.20;;;;;;;-1.02;100.00;151111.88;5009242;28;20471;-76
2022/01/07 07:55:32;;;;;;;11.80;7.10;;;;;;;-1.03;100.00;151109.28;5008072;28;20528;-75
2022/01/07 07:58:07;;;;;;;10.70;6.33;;;;;;;-1.01;100.00;151113.16;4992222;28;20785;-75
2022/01/07 08:00:43;;;;;;;11.40;7.73;;;;;;;-0.98;100.00;151122.09;5010324;28;20437;-76
2022/01/07 08:03:20;;;;;;;11.50;6.73;;;;;;;-0.86;100.00;151152.91;5007804;28;20446;-75
2022/01/07 08:05:57;;;;;;;13.37;7.30;;;;;;;-0.82;100.00;151161.91;5008744;28;20962;-75
2022/01/07 08:08:33;;;;;;;13.53;7.60;;;;;;;-0.76;100.00;151177.25;4989334;28;20443;-76
2022/01/07 08:11:11;;;;;;;9.40;7.07;;;;;;;-0.68;100.00;151197.78;4985415;28;20478;-76
2022/01/07 08:16:40;;;;;;;11.67;6.97;;;;;;;-0.66;100.00;151204.19;4993755;28;20512;-75
2022/01/07 08:19:15;;;;;;;9.67;6.43;;;;;;;-0.55;100.00;151231.13;4992495;28;20927;-75
2022/01/07 08:21:52;;;;;;;10.63;7.20;;;;;;;-0.55;100.00;151229.81;5007938;28;20488;-75
2022/01/07 08:24:27;;;;;;;12.10;7.20;;;;;;;-0.52;100.00;151237.53;5008526;28;20467;-75
2022/01/07 08:27:03;;;;;;;9.60;6.67;;;;;;;-0.53;100.00;151236.22;5008704;28;20590;-76
2022/01/07 08:29:41;;;;;;;9.30;6.47;;;;;;;-0.51;100.00;151241.41;5008513;28;20481;-75
2022/01/07 08:35:10;;;;;;;14.40;7.87;;;;;;;-0.51;100.00;151240.09;5008555;28;20436;-76
2022/01/07 08:37:47;;;;;;;11.30;6.97;;;;;;;-0.48;100.00;151249.09;5027762;28;20438;-75
2022/01/07 08:40:23;;;;;;;11.17;6.90;;;;;;;-0.50;100.00;151242.69;5011667;28;20498;-75
2022/01/07 08:42:58;;;;;;;11.07;6.60;;;;;;;-0.46;100.00;151254.22;5009962;28;20446;-76
2022/01/07 08:45:34;;;;;;;9.50;7.30;;;;;;;-0.50;100.00;151243.94;5008103;28;20476;-76
2022/01/07 08:48:10;;;;;;;10.57;7.30;;;;;;;-0.46;100.00;151254.22;5008240;28;20482;-75
2022/01/07 08:50:45;;;;;;;10.37;6.30;;;;;;;-0.45;100.00;151255.50;5008484;28;20550;-76
2022/01/07 08:53:22;;;;;;;9.17;6.40;;;;;;;-0.40;100.00;151269.63;5008090;28;20774;-75
2022/01/07 08:55:59;;;;;;;13.23;7.80;;;;;;;-0.37;100.00;151276.03;4993120;28;20482;-75
2022/01/07 08:58:35;;;;;;;11.00;6.67;;;;;;;-0.34;100.00;151284.97;5024921;28;20432;-75
2022/01/07 09:01:10;;;;;;;13.43;7.23;;;;;;;-0.37;100.00;151276.03;5008008;28;20456;-76
2022/01/07 09:03:46;;;;;;;7.97;6.20;;;;;;;-0.33;100.00;151286.28;5008243;28;20443;-75
2022/01/07 09:06:22;;;;;;;12.10;7.20;;;;;;;-0.29;100.00;151297.81;5008008;28;20474;-76
2022/01/07 09:08:59;;;;;;;7.93;6.10;;;;;;;-0.25;99.80;151308.09;4991785;28;20441;-76
2022/01/07 09:11:34;;;;;;;12.37;7.33;;;;;;;-0.24;98.63;151310.63;4991746;28;20450;-75
2022/01/07 09:14:10;;;;;;;8.73;6.43;;;;;;;-0.28;98.85;151300.41;5007995;28;20449;-76
2022/01/07 09:16:45;;;;;;;9.60;6.70;;;;;;;-0.24;99.58;151310.63;4976534;28;20535;-76
2022/01/07 09:19:21;;;;;;;7.50;5.90;;;;;;;-0.19;98.70;151322.22;4991429;28;20453;-75
2022/01/07 09:21:57;;;;;;;9.90;7.20;;;;;;;-0.15;99.57;151333.75;5024449;28;20449;-76
2022/01/07 09:24:34;;;;;;;8.90;7.13;;;;;;;-0.14;99.45;151335.03;4992639;28;20433;-75
2022/01/07 09:27:09;;;;;;;10.30;7.30;;;;;;;-0.10;98.76;151345.28;5022336;28;20478;-76
2022/01/07 09:29:45;;;;;;;7.93;6.07;;;;;;;0.08;98.16;151390.22;4991501;28;20445;-76
2022/01/07 09:32:21;;;;;;;8.20;6.23;;;;;;;0.04;97.81;151379.94;4991679;28;20441;-75
2022/01/07 09:34:57;;;;;;;7.90;5.90;;;;;;;0.06;98.64;151385.06;4991265;28;20460;-76
2022/01/07 09:37:32;;;;;;;8.77;6.10;;;;;;;0.05;98.96;151383.81;5022830;28;20434;-76
2022/01/07 09:40:12;;;;;;;9.57;6.13;;;;;;;0.10;97.67;151396.63;5027442;28;20438;-76
2022/01/07 09:42:54;;;;;;;8.23;6.50;;;;;;;0.05;98.07;151382.50;5010706;28;20469;-76
2022/01/07 09:45:32;;;;;;;9.17;6.60;;;;;;;0.06;95.78;151385.06;4991448;28;20754;-76
2022/01/07 09:48:09;;;;;;;7.17;5.73;;;;;;;0.08;95.59;151390.22;5007601;28;20485;-76
2022/01/07 09:50:45;;;;;;;14.23;6.63;;;;;;;0.10;95.69;151395.34;4976258;28;20437;-75
2022/01/07 09:53:21;;;;;;;10.47;6.73;;;;;;;0.07;96.31;151387.63;5006299;28;20437;-76
2022/01/07 09:56:00;;;;;;;9.97;6.63;;;;;;;0.08;95.97;151390.22;5007885;28;20498;-75
2022/01/07 09:58:36;;;;;;;9.70;6.43;;;;;;;0.13;96.26;151403.06;4976578;28;20758;-76
2022/01/07 10:01:16;;;;;;;10.23;6.23;;;;;;;0.13;97.71;151403.06;5007572;28;20909;-75
2022/01/07 10:03:52;;;;;;;11.53;6.87;;;;;;;0.14;95.99;151405.59;4991296;28;20979;-75
2022/01/07 10:06:28;;;;;;;9.70;6.50;;;;;;;0.16;97.64;151412.00;5023914;28;20952;-76
2022/01/07 10:09:07;;;;;;;10.30;7.13;;;;;;;0.19;98.60;151418.41;4975977;28;20945;-76
2022/01/07 10:11:49;;;;;;;10.37;7.50;;;;;;;0.18;97.34;151415.88;5006216;28;20821;-75
2022/01/07 10:14:25;;;;;;;9.33;5.90;;;;;;;0.22;98.67;151426.13;5007665;28;20518;-76
2022/01/07 10:17:02;;;;;;;7.87;6.60;;;;;;;0.27;98.74;151440.25;4976105;28;20450;-76
2022/01/07 10:19:39;;;;;;;6.53;5.60;;;;;;;0.29;99.34;151444.13;4991209;28;20433;-76
2022/01/07 10:22:16;;;;;;;8.60;5.93;;;;;;;0.35;100.00;151459.50;4994646;28;20546;-76
2022/01/07 10:24:56;;;;;;;9.77;5.70;;;;;;;0.36;100.00;151462.09;5027802;28;20801;-76
2022/01/07 10:27:37;;;;;;;11.33;6.00;;;;;;;0.35;100.00;151460.78;5011018;28;20813;-75
2022/01/07 10:30:15;;;;;;;10.43;6.40;;;;;;;0.32;100.00;151451.84;4994444;28;20453;-76
2022/01/07 10:32:51;;;;;;;8.87;6.10;;;;;;;0.37;100.00;151464.66;4994725;28;20449;-76
2022/01/07 10:35:27;;;;;;;11.73;6.40;;;;;;;0.37;100.00;151465.91;4994334;28;20430;-76
2022/01/07 10:38:04;;;;;;;8.60;5.60;;;;;;;0.34;100.00;151456.97;4999200;28;20534;-76
2022/01/07 10:40:42;;;;;;;10.00;6.93;;;;;;;0.35;100.00;151459.50;5030327;28;20434;-76
2022/01/07 10:43:21;;;;;;;9.30;6.50;;;;;;;0.31;100.00;151450.53;4994314;28;20444;-76
2022/01/07 10:45:59;;;;;;;8.57;5.93;;;;;;;0.37;100.00;151464.66;4994114;28;20438;-76
2022/01/07 10:48:39;;;;;;;9.10;5.90;;;;;;;0.37;100.00;151465.91;5011610;28;20566;-76
2022/01/07 10:51:22;;;;;;;8.27;6.03;;;;;;;0.34;100.00;151456.97;5010316;28;20441;-76
2022/01/07 10:53:59;;;;;;;9.07;6.10;;;;;;;0.40;100.00;151472.31;4994189;28;20805;-76
2022/01/07 10:56:36;;;;;;;10.10;6.63;;;;;;;0.43;100.00;151481.31;4995093;28;20435;-76
2022/01/07 10:59:14;;;;;;;12.33;7.20;;;;;;;0.45;100.00;151485.22;5027032;28;20532;-76
2022/01/07 11:01:51;;;;;;;9.17;5.70;;;;;;;0.46;100.00;151489.03;5010356;28;20450;-76
2022/01/07 11:04:32;;;;;;;9.60;6.23;;;;;;;0.39;100.00;151469.78;5010443;28;20466;-75
2022/01/07 11:07:12;;;;;;;12.43;7.30;;;;;;;0.40;100.00;151472.31;4993700;28;20468;-76
2022/01/07 11:09:47;;;;;;;9.60;6.13;;;;;;;0.40;100.00;151473.63;5029029;28;20439;-76
2022/01/07 11:12:25;;;;;;;10.97;6.83;;;;;;;0.35;100.00;151459.50;5030117;28;20553;-76
2022/01/07 11:15:05;;;;;;;9.80;6.50;;;;;;;0.36;100.00;151462.09;5030047;28;20448;-75
2022/01/07 11:17:42;;;;;;;8.57;6.50;;;;;;;0.29;100.00;151444.13;5021110;28;20447;-76
2022/01/07 11:20:24;;;;;;;10.20;5.60;;;;;;;0.35;100.00;151459.50;5009859;28;20438;-76
2022/01/07 11:22:59;;;;;;;9.50;6.10;;;;;;;0.32;100.00;151453.06;5008686;28;20454;-76
2022/01/07 11:25:34;;;;;;;9.40;6.03;;;;;;;0.35;100.00;151459.50;4978525;28;20449;-76
2022/01/07 11:28:18;;;;;;;8.17;5.67;;;;;;;0.37;100.00;151464.66;5009694;28;20459;-76
2022/01/07 11:31:03;;;;;;;8.60;6.30;;;;;;;0.39;100.00;151469.78;4993427;28;20506;-76
2022/01/07 11:33:39;;;;;;;8.80;5.97;;;;;;;0.41;100.00;151474.91;5009145;28;20843;-76
2022/01/07 11:36:34;;;;;;;10.87;6.60;;;;;;;0.48;100.00;151494.16;4990129;28;20458;-76
2022/01/07 11:39:09;;;;;;;11.73;6.73;;;;;;;0.46;100.00;151487.75;4973808;28;20968;-76
2022/01/07 11:41:47;;;;;;;10.80;6.57;;;;;;;0.47;100.00;151491.63;4996428;28;20458;-76
2022/01/07 11:44:27;;;;;;;9.90;6.43;;;;;;;0.44;100.00;151482.63;4993178;28;20526;-76
2022/01/07 11:47:25;;;;;;;9.40;6.67;;;;;;;0.49;100.00;151496.75;4994333;28;20469;-76
2022/01/07 11:50:03;;;;;;;7.70;5.80;;;;;;;0.54;100.00;151508.28;4976659;28;20499;-76
2022/01/07 11:52:39;;;;;;;8.70;6.13;;;;;;;0.59;100.00;151521.13;4977584;28;20441;-76
2022/01/07 11:55:22;;;;;;;8.47;5.90;;;;;;;0.68;100.00;151544.25;5009367;28;20531;-76
2022/01/07 11:58:01;;;;;;;10.30;5.97;;;;;;;0.68;100.00;151542.97;5009356;28;20486;-76
2022/01/07 12:00:51;;;;;;;9.43;6.37;;;;;;;0.74;100.00;151558.38;5010433;28;20444;-76
2022/01/07 12:03:33;;;;;;;10.07;6.40;;;;;;;0.75;100.00;151562.22;5009244;28;20439;-76